Time;durP1;ratioP1;P1;durP2;ratioP2;P2;SDS_P1;SDS_P2;PMS_P1;PMS_P2;Temp;Humidity;BMP_temperature;BMP_pressure;BME280_temperature;BME280_humidity;BME280_pressure;Samples;Min_cycle;Max_cycle;Signal;HPM_P1;HPM_P2
2024/01/02 00:00:47;;;;;;;12.48;2.70;;;9.90;77.80;;;;;;5053348;28;20025;-64
2024/01/02 00:03:13;;;;;;;14.60;2.65;;;9.90;77.90;;;;;;5052416;28;20120;-64
2024/01/02 00:05:38;;;;;;;7.57;2.33;;;9.90;77.90;;;;;;5053450;28;20090;-64
2024/01/02 00:08:04;;;;;;;10.13;2.55;;;9.90;78.00;;;;;;5053148;28;20033;-64
2024/01/02 00:10:30;;;;;;;7.43;2.80;;;9.90;78.00;;;;;;5053119;28;20075;-64
2024/01/02 00:12:58;;;;;;;10.15;2.65;;;9.90;78.10;;;;;;5035772;28;20323;-64
2024/01/02 00:15:24;;;;;;;8.38;2.78;;;9.90;78.20;;;;;;5053251;28;20040;-64
2024/01/02 00:17:50;;;;;;;8.90;2.58;;;9.90;78.30;;;;;;5051283;28;20035;-64
2024/01/02 00:20:16;;;;;;;9.40;2.47;;;9.90;78.40;;;;;;5052070;28;20037;-64
2024/01/02 00:22:41;;;;;;;7.15;2.03;;;9.90;78.40;;;;;;5051894;28;20457;-64
2024/01/02 00:25:07;;;;;;;12.00;2.63;;;9.90;78.50;;;;;;5052945;28;20033;-64
2024/01/02 00:27:33;;;;;;;9.43;3.10;;;9.90;78.50;;;;;;5050597;28;20025;-64
2024/01/02 00:29:59;;;;;;;8.80;2.10;;;9.90;78.60;;;;;;5052978;28;20124;-64
2024/01/02 00:32:24;;;;;;;9.48;3.10;;;9.80;78.60;;;;;;5052518;28;20025;-64
2024/01/02 00:34:51;;;;;;;10.27;2.10;;;9.90;78.70;;;;;;5053580;28;20037;-64
2024/01/02 00:37:17;;;;;;;10.18;2.85;;;9.80;78.70;;;;;;5051023;28;20029;-64
2024/01/02 00:39:42;;;;;;;8.13;2.30;;;9.90;78.80;;;;;;5052252;28;20044;-64
2024/01/02 00:42:08;;;;;;;7.95;2.13;;;9.80;78.80;;;;;;5052328;28;20044;-64
2024/01/02 00:44:34;;;;;;;7.93;2.10;;;9.90;79.00;;;;;;5053018;28;20086;-64
2024/01/02 00:47:00;;;;;;;7.60;2.00;;;9.90;79.00;;;;;;5052834;28;20391;-64
2024/01/02 00:49:25;;;;;;;7.70;2.22;;;9.90;79.00;;;;;;5051722;28;20032;-64
2024/01/02 00:51:51;;;;;;;8.50;2.00;;;9.90;79.10;;;;;;5047576;28;20036;-64
2024/01/02 00:54:17;;;;;;;8.02;2.25;;;9.90;79.10;;;;;;5034908;28;20148;-64
2024/01/02 00:56:43;;;;;;;10.88;2.70;;;9.90;79.20;;;;;;5053664;28;20025;-64
2024/01/02 00:59:08;;;;;;;6.60;1.98;;;9.80;79.20;;;;;;5057405;28;20077;-65
2024/01/02 01:01:34;;;;;;;8.15;2.13;;;9.80;79.30;;;;;;5056516;28;20041;-64
2024/01/02 01:04:02;;;;;;;9.55;2.35;;;9.80;79.40;;;;;;5054692;28;20132;-64
2024/01/02 01:06:28;;;;;;;6.57;2.22;;;9.80;79.50;;;;;;5038163;28;20108;-64
2024/01/02 01:08:54;;;;;;;8.82;2.22;;;9.80;79.50;;;;;;5056552;28;20060;-64
2024/01/02 01:11:20;;;;;;;7.28;2.53;;;9.90;79.60;;;;;;5057113;28;20063;-64
2024/01/02 01:13:46;;;;;;;7.32;1.90;;;9.80;79.50;;;;;;5056634;28;20032;-64
2024/01/02 01:16:12;;;;;;;8.48;1.95;;;9.90;79.60;;;;;;5054654;28;20430;-64
2024/01/02 01:18:37;;;;;;;10.07;2.00;;;9.90;79.60;;;;;;5055479;28;20087;-64
2024/01/02 01:21:03;;;;;;;7.15;1.95;;;9.90;79.60;;;;;;5055148;28;20488;-64
2024/01/02 01:23:29;;;;;;;9.68;2.45;;;9.90;79.70;;;;;;5056721;28;20037;-64
2024/01/02 01:25:55;;;;;;;5.97;1.40;;;9.90;79.80;;;;;;5055272;28;20039;-64
2024/01/02 01:28:20;;;;;;;7.13;1.83;;;9.90;79.90;;;;;;5056697;28;20064;-64
2024/01/02 01:30:46;;;;;;;7.53;1.60;;;9.90;80.00;;;;;;5054814;28;20029;-64
2024/01/02 01:33:12;;;;;;;7.50;1.55;;;9.90;80.00;;;;;;5056301;28;20064;-64
2024/01/02 01:35:38;;;;;;;8.70;2.17;;;9.80;79.90;;;;;;5056226;28;20358;-64
2024/01/02 01:38:03;;;;;;;7.40;1.55;;;9.90;80.00;;;;;;5056272;28;20025;-63
2024/01/02 01:40:30;;;;;;;7.75;1.45;;;9.80;79.90;;;;;;5054504;28;20029;-64
2024/01/02 01:42:55;;;;;;;6.35;1.92;;;9.80;80.00;;;;;;5038833;28;20094;-64
2024/01/02 01:45:21;;;;;;;4.00;1.48;;;9.80;80.00;;;;;;5056533;28;20044;-64
2024/01/02 01:47:47;;;;;;;7.25;1.85;;;9.90;80.00;;;;;;5056130;28;20032;-64
2024/01/02 01:50:14;;;;;;;5.63;1.50;;;9.90;80.10;;;;;;5055294;28;20420;-64
2024/01/02 01:52:40;;;;;;;6.40;1.63;;;9.90;80.10;;;;;;5055386;28;20040;-64
2024/01/02 01:55:07;;;;;;;7.18;1.10;;;9.90;80.20;;;;;;5054647;28;20040;-64
2024/01/02 01:57:33;;;;;;;5.10;1.30;;;9.90;80.30;;;;;;5054973;28;20115;-64
2024/01/02 01:59:59;;;;;;;4.75;1.20;;;9.90;80.30;;;;;;5054726;28;20120;-64
2024/01/02 02:02:25;;;;;;;8.52;1.35;;;9.90;80.30;;;;;;5053909;28;20032;-64
2024/01/02 02:04:54;;;;;;;5.00;1.20;;;9.90;80.30;;;;;;5054404;28;20031;-64
2024/01/02 02:07:19;;;;;;;5.60;1.33;;;9.90;80.40;;;;;;5036687;28;20457;-64
2024/01/02 02:09:45;;;;;;;4.88;1.52;;;9.90;80.40;;;;;;5054703;28;20066;-64
2024/01/02 02:12:11;;;;;;;4.97;1.40;;;9.90;80.40;;;;;;5054560;28;20083;-64
2024/01/02 02:14:37;;;;;;;4.47;1.10;;;9.90;80.40;;;;;;5053156;28;20033;-64
2024/01/02 02:17:02;;;;;;;3.83;1.20;;;9.90;80.50;;;;;;5053962;28;20108;-64
2024/01/02 02:19:28;;;;;;;2.90;1.05;;;9.90;80.40;;;;;;5053978;28;20025;-64
2024/01/02 02:21:56;;;;;;;3.40;1.15;;;9.90;80.50;;;;;;5053762;28;20100;-63
2024/01/02 02:24:23;;;;;;;6.60;1.65;;;9.90;80.50;;;;;;5037906;28;20040;-64
2024/01/02 02:26:49;;;;;;;4.03;1.15;;;9.90;80.60;;;;;;5053639;28;20025;-64
2024/01/02 02:29:15;;;;;;;2.55;0.90;;;9.90;80.70;;;;;;5054175;28;20445;-63
2024/01/02 02:31:41;;;;;;;3.53;1.00;;;9.90;80.60;;;;;;5054582;28;20078;-64
2024/01/02 02:34:06;;;;;;;1.35;0.80;;;9.90;80.70;;;;;;5054890;28;20523;-64
2024/01/02 02:36:32;;;;;;;6.40;1.20;;;9.90;80.70;;;;;;5054103;28;20032;-64
2024/01/02 02:38:58;;;;;;;3.65;1.00;;;9.90;80.70;;;;;;5053785;28;20021;-64
2024/01/02 02:41:23;;;;;;;2.97;0.88;;;9.90;80.70;;;;;;5052160;28;20457;-63
2024/01/02 02:43:49;;;;;;;3.08;1.00;;;9.90;80.70;;;;;;5053925;28;20039;-64
2024/01/02 02:46:16;;;;;;;2.55;0.90;;;9.90;80.80;;;;;;5054949;28;20029;-64
2024/01/02 02:48:42;;;;;;;2.47;1.00;;;9.90;80.80;;;;;;5054745;28;20025;-64
2024/01/02 02:51:10;;;;;;;4.88;1.67;;;9.90;80.80;;;;;;5052466;28;20059;-64
2024/01/02 02:53:36;;;;;;;3.40;0.70;;;9.90;80.90;;;;;;5053425;28;20048;-64
2024/01/02 02:56:02;;;;;;;3.47;0.70;;;9.90;80.80;;;;;;5037329;28;20147;-64
2024/01/02 02:58:28;;;;;;;2.15;0.80;;;9.90;80.90;;;;;;5054147;28;20112;-64
2024/01/02 03:00:53;;;;;;;2.20;0.80;;;9.90;80.90;;;;;;5054298;28;20044;-63
2024/01/02 03:03:19;;;;;;;3.80;0.90;;;9.90;81.00;;;;;;5052820;28;20039;-63
2024/01/02 03:05:45;;;;;;;2.88;0.90;;;9.80;81.00;;;;;;5036888;28;20059;-63
2024/01/02 03:08:11;;;;;;;3.13;0.70;;;9.80;81.00;;;;;;5036082;28;20079;-64
2024/01/02 03:10:37;;;;;;;2.75;0.77;;;9.80;81.10;;;;;;5053771;28;20033;-64
2024/01/02 03:13:03;;;;;;;2.05;0.70;;;9.80;81.10;;;;;;5052718;28;20040;-64
2024/01/02 03:15:28;;;;;;;3.65;0.90;;;9.80;81.10;;;;;;5054536;28;20025;-63
2024/01/02 03:17:54;;;;;;;1.75;0.63;;;9.80;81.20;;;;;;5054340;28;20465;-63
2024/01/02 03:20:20;;;;;;;1.95;0.70;;;9.80;81.20;;;;;;5036850;28;20476;-64
2024/01/02 03:22:46;;;;;;;2.20;0.73;;;9.90;81.40;;;;;;5053310;28;20047;-64
2024/01/02 03:25:12;;;;;;;1.45;0.60;;;9.90;81.40;;;;;;5053267;28;20020;-64
2024/01/02 03:27:38;;;;;;;1.35;0.75;;;9.90;81.40;;;;;;5052642;28;20358;-64
2024/01/02 03:30:05;;;;;;;2.35;0.70;;;9.90;81.50;;;;;;5054308;28;20040;-64
2024/01/02 03:32:30;;;;;;;1.55;0.80;;;9.80;81.50;;;;;;5050825;28;20029;-64
2024/01/02 03:34:56;;;;;;;2.22;0.68;;;9.90;81.70;;;;;;5043224;28;20048;-64
2024/01/02 03:37:22;;;;;;;1.63;0.65;;;9.80;81.60;;;;;;5054761;28;20045;-64
2024/01/02 03:39:48;;;;;;;2.17;0.80;;;9.90;81.60;;;;;;5046900;28;20120;-64
2024/01/02 03:42:13;;;;;;;3.25;1.13;;;9.90;81.60;;;;;;5037161;28;20038;-64
2024/01/02 03:44:39;;;;;;;1.98;0.77;;;9.90;81.70;;;;;;5036001;28;20025;-64
2024/01/02 03:47:05;;;;;;;2.45;0.77;;;9.90;81.70;;;;;;5033702;28;20120;-64
2024/01/02 03:49:30;;;;;;;1.25;0.55;;;9.90;81.60;;;;;;5037387;28;20447;-63
2024/01/02 03:51:56;;;;;;;2.50;0.82;;;9.90;81.70;;;;;;5039846;28;20040;-64
2024/01/02 03:54:22;;;;;;;1.23;0.52;;;9.90;81.80;;;;;;5034319;28;20049;-64
2024/01/02 03:56:48;;;;;;;1.88;0.80;;;9.90;81.90;;;;;;5038836;28;20032;-64
2024/01/02 03:59:13;;;;;;;0.40;0.40;;;9.90;81.90;;;;;;5048363;28;20021;-64
2024/01/02 04:01:45;;;;;;;0.40;0.40;;;9.90;82.00;;;;;;5051986;28;20468;-63
2024/01/02 04:04:11;;;;;;;1.85;0.70;;;9.90;81.90;;;;;;5051027;28;20032;-64
2024/01/02 04:06:37;;;;;;;0.65;0.50;;;9.90;81.90;;;;;;5038331;28;20022;-63
2024/01/02 04:09:02;;;;;;;0.77;0.55;;;9.90;81.90;;;;;;5038758;28;20023;-63
2024/01/02 04:11:28;;;;;;;0.55;0.40;;;9.90;81.90;;;;;;5046364;28;20037;-64
2024/01/02 04:13:54;;;;;;;1.45;0.60;;;9.90;82.00;;;;;;5036943;28;20017;-63
2024/01/02 04:16:20;;;;;;;0.75;0.43;;;9.90;82.10;;;;;;5051443;28;20507;-63
2024/01/02 04:18:49;;;;;;;0.45;0.32;;;9.90;82.10;;;;;;5052032;28;20025;-63
2024/01/02 04:21:15;;;;;;;0.35;0.35;;;9.90;82.20;;;;;;5036431;28;20112;-63
2024/01/02 04:23:41;;;;;;;0.50;0.40;;;9.90;82.30;;;;;;5040386;28;20113;-63
2024/01/02 04:26:06;;;;;;;1.35;0.50;;;9.90;82.40;;;;;;5048262;28;20343;-63
2024/01/02 04:28:32;;;;;;;0.77;0.55;;;9.90;82.40;;;;;;5039404;28;20130;-63
2024/01/02 04:30:59;;;;;;;1.48;0.50;;;9.90;82.40;;;;;;5045226;28;20029;-63
2024/01/02 04:33:25;;;;;;;0.38;0.38;;;10.00;82.50;;;;;;5041547;28;20025;-63
2024/01/02 04:35:51;;;;;;;1.80;0.60;;;9.90;82.40;;;;;;5044196;28;20040;-63
2024/01/02 04:38:17;;;;;;;0.73;0.43;;;9.90;82.40;;;;;;5049420;28;20401;-64
2024/01/02 04:40:42;;;;;;;0.50;0.30;;;10.00;82.60;;;;;;5054934;28;20413;-63
2024/01/02 04:43:08;;;;;;;1.10;0.50;;;10.00;82.70;;;;;;5056798;28;20347;-64
2024/01/02 04:45:34;;;;;;;1.55;0.50;;;10.00;82.70;;;;;;5039701;28;20044;-64
2024/01/02 04:48:00;;;;;;;1.25;0.40;;;10.10;82.80;;;;;;5057325;28;20434;-64
2024/01/02 04:50:26;;;;;;;0.70;0.47;;;10.10;82.80;;;;;;5056180;28;20028;-64
2024/01/02 04:52:52;;;;;;;0.30;0.30;;;10.10;82.80;;;;;;5055050;28;20373;-64
2024/01/02 04:55:17;;;;;;;0.63;0.40;;;10.10;82.80;;;;;;5055198;28;20036;-64
2024/01/02 04:57:43;;;;;;;1.10;0.65;;;10.10;82.80;;;;;;5048243;28;20098;-64
2024/01/02 05:00:09;;;;;;;0.40;0.30;;;10.20;82.90;;;;;;5050357;28;20034;-64
2024/01/02 05:02:35;;;;;;;0.38;0.38;;;10.20;82.90;;;;;;5051908;28;20043;-64
2024/01/02 05:05:01;;;;;;;0.30;0.30;;;10.20;82.90;;;;;;5054138;28;20024;-63
2024/01/02 05:07:26;;;;;;;0.45;0.40;;;10.20;82.90;;;;;;5043867;28;20041;-64
2024/01/02 05:09:52;;;;;;;0.30;0.30;;;10.20;82.90;;;;;;5036467;28;20033;-64
2024/01/02 05:12:18;;;;;;;0.40;0.40;;;10.20;83.00;;;;;;5050616;28;20034;-64
2024/01/02 05:14:44;;;;;;;0.40;0.40;;;10.30;83.10;;;;;;5036397;28;20027;-64
2024/01/02 05:17:10;;;;;;;0.77;0.40;;;10.30;83.20;;;;;;5052219;28;20372;-63
2024/01/02 05:19:37;;;;;;;0.98;0.60;;;10.30;83.20;;;;;;5055441;28;20029;-63
2024/01/02 05:22:03;;;;;;;0.93;0.55;;;10.30;83.30;;;;;;5055276;28;20346;-64
2024/01/02 05:24:29;;;;;;;0.50;0.47;;;10.40;83.30;;;;;;5054568;28;20043;-64
2024/01/02 05:26:55;;;;;;;0.95;0.65;;;10.40;83.30;;;;;;5053466;28;20028;-64
2024/01/02 05:29:21;;;;;;;0.65;0.55;;;10.40;83.30;;;;;;5036523;28;20504;-63
2024/01/02 05:31:46;;;;;;;0.82;0.60;;;10.40;83.40;;;;;;5052586;28;20028;-63
2024/01/02 05:34:12;;;;;;;0.50;0.50;;;10.40;83.50;;;;;;5035227;28;20060;-64
2024/01/02 05:36:38;;;;;;;0.85;0.52;;;10.40;83.50;;;;;;5037789;28;20112;-64
2024/01/02 05:39:03;;;;;;;0.50;0.50;;;10.50;83.70;;;;;;5029972;28;20064;-64
2024/01/02 05:41:29;;;;;;;0.95;0.63;;;10.50;83.80;;;;;;5054074;28;20408;-64
2024/01/02 05:43:55;;;;;;;0.43;0.43;;;10.50;83.80;;;;;;5053294;28;20020;-63
2024/01/02 05:46:21;;;;;;;0.50;0.50;;;10.50;83.90;;;;;;5049082;28;20029;-64
2024/01/02 05:48:46;;;;;;;0.60;0.60;;;10.50;83.90;;;;;;5054902;28;20056;-64
2024/01/02 05:51:12;;;;;;;0.63;0.60;;;10.60;84.00;;;;;;5054730;28;20067;-64
2024/01/02 05:53:38;;;;;;;0.82;0.70;;;10.60;84.10;;;;;;5039334;28;20132;-64
2024/01/02 05:56:04;;;;;;;1.25;0.60;;;10.60;84.10;;;;;;5038530;28;20028;-64
2024/01/02 05:58:30;;;;;;;0.63;0.63;;;10.70;84.20;;;;;;5053227;28;20028;-63
2024/01/02 06:00:56;;;;;;;0.93;0.70;;;10.70;84.30;;;;;;5053626;28;20048;-63
2024/01/02 06:03:22;;;;;;;0.70;0.70;;;10.70;84.30;;;;;;5052598;28;20041;-64
2024/01/02 06:05:47;;;;;;;1.55;0.70;;;10.80;84.40;;;;;;5055992;28;20032;-63
2024/01/02 06:08:13;;;;;;;0.70;0.70;;;10.80;84.30;;;;;;5055151;28;20029;-63
2024/01/02 06:10:41;;;;;;;0.95;0.70;;;10.80;84.40;;;;;;5054979;28;20021;-63
2024/01/02 06:13:07;;;;;;;0.88;0.77;;;10.90;84.50;;;;;;5054414;28;20044;-64
2024/01/02 06:15:33;;;;;;;0.68;0.57;;;10.90;84.50;;;;;;5054555;28;20102;-64
2024/01/02 06:17:59;;;;;;;2.97;0.90;;;10.90;84.50;;;;;;5053983;28;20029;-64
2024/01/02 06:20:24;;;;;;;0.88;0.80;;;10.90;84.60;;;;;;5055418;28;20310;-64
2024/01/02 06:22:50;;;;;;;0.75;0.70;;;11.00;84.70;;;;;;5068151;28;20038;-64
2024/01/02 06:25:16;;;;;;;1.48;0.70;;;11.00;84.80;;;;;;5060613;28;20373;-63
2024/01/02 06:27:42;;;;;;;1.25;0.90;;;11.00;84.80;;;;;;5055067;28;20021;-63
2024/01/02 06:30:08;;;;;;;2.13;0.90;;;11.00;84.90;;;;;;5054656;28;20053;-63
2024/01/02 06:32:34;;;;;;;2.45;1.00;;;11.10;85.00;;;;;;5055396;28;20084;-63
2024/01/02 06:35:00;;;;;;;1.55;1.10;;;11.10;85.10;;;;;;5053969;28;20033;-63
2024/01/02 06:37:25;;;;;;;1.80;1.00;;;11.10;85.20;;;;;;5055360;28;20327;-63
2024/01/02 06:39:51;;;;;;;2.05;1.10;;;11.10;85.30;;;;;;5054142;28;20032;-64
2024/01/02 06:42:17;;;;;;;1.90;0.93;;;11.20;85.40;;;;;;5055041;28;20029;-64
2024/01/02 06:44:43;;;;;;;2.85;1.33;;;11.20;85.40;;;;;;5054032;28;20021;-64
2024/01/02 06:47:09;;;;;;;3.28;1.60;;;11.20;86.10;;;;;;5054502;28;20025;-63
2024/01/02 06:49:34;;;;;;;3.80;1.70;;;11.20;85.50;;;;;;5054073;28;20080;-64
2024/01/02 06:52:00;;;;;;;3.83;1.90;;;11.30;85.50;;;;;;5054257;28;20068;-64
2024/01/02 06:54:26;;;;;;;3.63;1.80;;;11.30;85.60;;;;;;5052971;28;20142;-63
2024/01/02 06:56:51;;;;;;;4.60;1.95;;;11.40;85.70;;;;;;5047067;28;20036;-64
2024/01/02 06:59:18;;;;;;;4.18;2.03;;;11.40;85.80;;;;;;5053420;28;20116;-63
2024/01/02 07:01:44;;;;;;;5.47;2.47;;;11.40;85.80;;;;;;5053377;28;20446;-63
2024/01/02 07:04:10;;;;;;;5.25;2.15;;;11.40;85.90;;;;;;5053634;28;20175;-63
2024/01/02 07:06:35;;;;;;;5.53;2.42;;;11.50;86.00;;;;;;5053397;28;20033;-63
2024/01/02 07:09:01;;;;;;;6.22;3.08;;;11.50;86.00;;;;;;5054814;28;20053;-63
2024/01/02 07:11:27;;;;;;;5.60;2.75;;;11.50;86.00;;;;;;5053401;28;20092;-63
2024/01/02 07:13:53;;;;;;;8.63;2.88;;;11.60;86.10;;;;;;5053087;28;20055;-63
2024/01/02 07:16:18;;;;;;;6.90;3.08;;;11.60;86.10;;;;;;5045021;28;20108;-63
2024/01/02 07:18:44;;;;;;;6.63;3.25;;;11.60;86.20;;;;;;5052318;28;20033;-64
2024/01/02 07:21:10;;;;;;;7.30;3.42;;;11.60;86.30;;;;;;5052968;28;20033;-63
2024/01/02 07:23:36;;;;;;;7.07;3.30;;;11.60;86.30;;;;;;5053965;28;20037;-63
2024/01/02 07:26:01;;;;;;;7.13;2.92;;;11.60;86.30;;;;;;5053780;28;20035;-63
2024/01/02 07:28:27;;;;;;;7.20;3.20;;;11.70;86.40;;;;;;5054265;28;20036;-63
2024/01/02 07:30:53;;;;;;;7.32;3.22;;;11.70;86.40;;;;;;5053107;28;20017;-64
2024/01/02 07:33:19;;;;;;;10.73;3.45;;;11.70;87.10;;;;;;5054491;28;20403;-64
2024/01/02 07:35:45;;;;;;;7.97;3.08;;;11.70;86.50;;;;;;5062749;28;20039;-64
2024/01/02 07:38:11;;;;;;;12.98;3.53;;;11.80;86.50;;;;;;5053988;28;20544;-64
2024/01/02 07:40:36;;;;;;;7.65;3.45;;;11.80;86.50;;;;;;5053713;28;20037;-64
2024/01/02 07:43:04;;;;;;;8.73;2.55;;;11.80;86.50;;;;;;5053163;28;20377;-64
2024/01/02 07:45:30;;;;;;;9.65;2.90;;;11.80;86.50;;;;;;5066549;28;20293;-64
2024/01/02 07:47:55;;;;;;;8.88;2.70;;;11.80;86.50;;;;;;5053914;28;20108;-64
2024/01/02 07:50:21;;;;;;;8.93;2.53;;;11.90;86.60;;;;;;5054086;28;20039;-63
2024/01/02 07:52:47;;;;;;;9.18;3.40;;;11.90;86.60;;;;;;5052976;28;20032;-63
2024/01/02 07:55:13;;;;;;;11.45;2.70;;;11.90;86.60;;;;;;5051695;28;20151;-63
2024/01/02 07:57:38;;;;;;;9.30;2.45;;;11.90;86.60;;;;;;5052908;28;20115;-63
2024/01/02 08:00:05;;;;;;;6.82;2.55;;;12.00;86.70;;;;;;5052468;28;20515;-63
2024/01/02 08:02:37;;;;;;;9.45;2.42;;;12.00;86.70;;;;;;5053384;28;20041;-63
2024/01/02 08:05:03;;;;;;;8.63;2.28;;;12.00;86.70;;;;;;5052953;28;20109;-63
2024/01/02 08:07:29;;;;;;;7.32;2.78;;;12.00;86.70;;;;;;5056512;28;20052;-64
2024/01/02 08:09:55;;;;;;;8.32;2.60;;;12.00;86.70;;;;;;5057190;28;20409;-63
2024/01/02 08:12:20;;;;;;;10.13;2.58;;;12.00;86.80;;;;;;5057748;28;20032;-64
2024/01/02 08:14:46;;;;;;;9.63;2.35;;;12.00;86.80;;;;;;5057504;28;20037;-64
2024/01/02 08:17:12;;;;;;;12.27;2.50;;;12.00;86.80;;;;;;5057703;28;20388;-64
2024/01/02 08:19:38;;;;;;;11.02;2.70;;;12.10;86.80;;;;;;5057069;28;20056;-64
2024/01/02 08:22:03;;;;;;;6.88;2.40;;;12.10;86.80;;;;;;5056222;28;20033;-64
2024/01/02 08:24:29;;;;;;;9.77;2.60;;;12.00;86.70;;;;;;5050504;28;20049;-64
2024/01/02 08:26:55;;;;;;;13.02;3.20;;;12.10;86.80;;;;;;5054070;28;20408;-63
2024/01/02 08:29:21;;;;;;;10.25;2.53;;;12.10;86.80;;;;;;5056506;28;20028;-64
2024/01/02 08:31:47;;;;;;;12.98;3.17;;;12.10;86.80;;;;;;5069698;28;20032;-63
2024/01/02 08:34:13;;;;;;;11.55;3.22;;;12.10;86.80;;;;;;5057500;28;20441;-64
2024/01/02 08:36:39;;;;;;;12.60;3.00;;;12.10;86.90;;;;;;5057868;28;20445;-63
2024/01/02 08:39:05;;;;;;;10.43;2.85;;;12.10;86.90;;;;;;5055708;28;20036;-64
2024/01/02 08:41:31;;;;;;;12.27;2.90;;;12.10;86.90;;;;;;5055956;28;20040;-64
2024/01/02 08:43:57;;;;;;;11.48;2.58;;;12.10;86.90;;;;;;5041030;28;20445;-64
2024/01/02 08:46:23;;;;;;;17.40;3.30;;;12.20;87.00;;;;;;5057879;28;20036;-64
2024/01/02 08:48:49;;;;;;;13.25;3.33;;;12.20;86.90;;;;;;5057281;28;20036;-64
2024/01/02 08:51:14;;;;;;;10.10;3.08;;;12.20;86.90;;;;;;5057340;28;20043;-64
2024/01/02 08:53:40;;;;;;;12.10;2.70;;;12.20;86.90;;;;;;5056263;28;20365;-64
2024/01/02 08:56:07;;;;;;;12.57;3.22;;;12.20;86.80;;;;;;5057263;28;20040;-64
2024/01/02 08:58:33;;;;;;;16.67;3.45;;;12.20;86.80;;;;;;5057252;28;20064;-63
2024/01/02 09:00:59;;;;;;;12.10;3.13;;;12.20;86.80;;;;;;5056259;28;20461;-64
2024/01/02 09:03:27;;;;;;;13.60;3.63;;;12.20;86.80;;;;;;5057114;28;20036;-64
2024/01/02 09:05:53;;;;;;;17.02;3.30;;;12.30;86.80;;;;;;5055656;28;20024;-64
2024/01/02 09:08:19;;;;;;;12.32;2.97;;;12.30;86.80;;;;;;5072382;28;20025;-64
2024/01/02 09:10:45;;;;;;;12.05;3.03;;;12.30;86.70;;;;;;5077385;28;20016;-64
2024/01/02 09:13:11;;;;;;;15.45;3.35;;;12.40;86.80;;;;;;5077302;28;20035;-64
2024/01/02 09:15:38;;;;;;;19.52;3.85;;;12.40;86.80;;;;;;5071476;28;20021;-64
2024/01/02 09:18:04;;;;;;;10.25;2.80;;;12.40;86.70;;;;;;5056338;28;20568;-64
2024/01/02 09:20:30;;;;;;;20.30;3.53;;;12.40;86.70;;;;;;5057014;28;20111;-64
2024/01/02 09:22:57;;;;;;;16.23;3.58;;;12.40;86.70;;;;;;5056308;28;20029;-64
2024/01/02 09:25:26;;;;;;;14.23;3.47;;;12.40;86.80;;;;;;5056098;28;20084;-63
2024/01/02 09:27:58;;;;;;;14.65;3.22;;;12.40;86.80;;;;;;5036922;28;20521;-65
2024/01/02 09:30:24;;;;;;;13.68;3.47;;;12.40;86.80;;;;;;5054043;28;20025;-65
2024/01/02 09:32:49;;;;;;;13.45;3.38;;;12.40;86.80;;;;;;5055784;28;20468;-64
2024/01/02 09:35:17;;;;;;;14.18;4.18;;;12.40;86.70;;;;;;5055499;28;20466;-64
2024/01/02 09:37:43;;;;;;;14.88;4.13;;;12.50;86.80;;;;;;5051485;28;20031;-64
2024/01/02 09:40:41;;;;;;;12.10;3.15;;;12.50;86.80;;;;;;5044820;28;20087;-66
2024/01/02 09:43:36;;;;;;;16.08;3.88;;;12.50;87.40;;;;;;5053020;28;20040;-64
2024/01/02 09:46:17;;;;;;;14.38;3.50;;;12.50;86.70;;;;;;5055799;28;20040;-64
2024/01/02 09:49:21;;;;;;;10.70;3.42;;;12.50;86.70;;;;;;5055940;28;20438;-64
2024/01/02 09:51:59;;;;;;;15.40;3.13;;;12.50;86.60;;;;;;5055627;28;20044;-64
2024/01/02 09:54:44;;;;;;;12.27;3.55;;;12.50;86.60;;;;;;5055613;28;20056;-64
2024/01/02 09:57:52;;;;;;;13.43;3.80;;;12.60;86.60;;;;;;5055220;28;20461;-64
2024/01/02 10:00:31;;;;;;;13.88;4.07;;;12.60;86.50;;;;;;5052852;28;20098;-64
2024/01/02 10:03:17;;;;;;;12.95;3.58;;;12.60;86.60;;;;;;5053872;28;20040;-63
2024/01/02 10:06:04;;;;;;;15.93;3.45;;;12.60;86.60;;;;;;5055489;28;20099;-63
2024/01/02 10:09:04;;;;;;;13.02;4.63;;;12.50;86.60;;;;;;5055675;28;20036;-64
2024/01/02 10:12:06;;;;;;;10.50;4.18;;;12.60;86.60;;;;;;5035020;28;20033;-64
2024/01/02 10:14:50;;;;;;;11.25;4.20;;;12.60;86.60;;;;;;5035170;28;20457;-63
2024/01/02 10:17:30;;;;;;;11.07;4.32;;;12.60;86.60;;;;;;5055795;28;20524;-64
2024/01/02 10:20:11;;;;;;;13.43;5.35;;;12.60;86.70;;;;;;5056183;28;20065;-64
2024/01/02 10:22:47;;;;;;;9.48;5.05;;;12.60;86.70;;;;;;5055902;28;20065;-64
2024/01/02 10:25:16;;;;;;;14.38;5.15;;;12.60;86.60;;;;;;5054744;28;20067;-63
2024/01/02 10:27:57;;;;;;;10.45;5.22;;;12.60;86.70;;;;;;5053923;28;20025;-63
2024/01/02 10:30:32;;;;;;;12.02;5.50;;;12.60;86.70;;;;;;5055374;28;20075;-63
2024/01/02 10:33:04;;;;;;;11.52;5.10;;;12.70;86.80;;;;;;5055714;28;20467;-63
2024/01/02 10:35:40;;;;;;;11.10;5.43;;;12.70;86.80;;;;;;5055671;28;20028;-63
2024/01/02 10:38:12;;;;;;;12.93;6.15;;;12.70;86.90;;;;;;5054497;28;20140;-64
2024/01/02 10:40:40;;;;;;;;;;;12.70;86.90;;;;;;5054414;28;20037;-63
2024/01/02 10:43:22;;;;;;;11.35;5.00;;;12.60;86.80;;;;;;5054385;28;19916;-63
2024/01/02 10:45:51;;;;;;;10.85;5.10;;;12.60;86.80;;;;;;5055632;28;20021;-63
2024/01/02 10:48:54;;;;;;;10.60;5.07;;;12.60;86.90;;;;;;5054373;28;20025;-63
2024/01/02 10:51:35;;;;;;;10.50;5.25;;;12.60;86.90;;;;;;5053852;28;20036;-63
2024/01/02 10:54:08;;;;;;;10.23;4.70;;;12.60;86.80;;;;;;5037818;28;20470;-64
2024/01/02 10:57:03;;;;;;;8.45;5.05;;;12.70;86.90;;;;;;5055380;28;20040;-63
2024/01/02 10:59:37;;;;;;;9.57;4.22;;;12.70;86.90;;;;;;5055270;28;20036;-64
2024/01/02 11:02:12;;;;;;;8.07;4.60;;;12.70;86.90;;;;;;5053924;28;20037;-63
2024/01/02 11:05:04;;;;;;;9.25;4.50;;;12.70;87.50;;;;;;5054194;28;20025;-64
2024/01/02 11:07:35;;;;;;;7.97;3.88;;;12.70;86.90;;;;;;5055077;28;20100;-64
2024/01/02 11:10:08;;;;;;;8.00;3.80;;;12.70;87.00;;;;;;5055099;28;20047;-63
2024/01/02 11:12:56;;;;;;;8.02;3.80;;;12.70;87.10;;;;;;5037356;28;20033;-64
2024/01/02 11:15:24;;;;;;;6.03;2.92;;;12.70;87.20;;;;;;5036464;28;20178;-63
2024/01/02 11:17:57;;;;;;;8.50;3.05;;;12.70;87.20;;;;;;5053929;28;20043;-64
2024/01/02 11:20:29;;;;;;;5.60;2.50;;;12.70;87.30;;;;;;5054881;28;20040;-64
2024/01/02 11:23:13;;;;;;;5.47;2.47;;;12.70;87.30;;;;;;5054786;28;20044;-64
2024/01/02 11:25:57;;;;;;;5.30;2.38;;;12.70;87.40;;;;;;5052952;28;20492;-63
2024/01/02 11:28:25;;;;;;;3.40;1.58;;;12.70;87.40;;;;;;5036616;28;20124;-63
2024/01/02 11:30:52;;;;;;;4.65;1.80;;;12.70;87.50;;;;;;5054654;28;20114;-64
2024/01/02 11:33:45;;;;;;;3.22;1.65;;;12.70;87.50;;;;;;5054685;28;20067;-63
2024/01/02 11:36:35;;;;;;;2.97;1.60;;;12.70;87.50;;;;;;5054841;28;20041;-63
2024/01/02 11:39:12;;;;;;;2.78;1.60;;;12.70;87.60;;;;;;5054390;28;20457;-64
2024/01/02 11:41:53;;;;;;;3.30;1.70;;;12.70;87.60;;;;;;5052562;28;20033;-63
2024/01/02 11:44:25;;;;;;;3.60;1.70;;;12.70;87.70;;;;;;5054532;28;20118;-64
2024/01/02 11:47:01;;;;;;;2.35;1.30;;;12.70;87.70;;;;;;5054003;28;20033;-64
2024/01/02 11:49:28;;;;;;;3.50;1.50;;;12.70;87.70;;;;;;5050769;28;20450;-63
2024/01/02 11:52:05;;;;;;;4.72;1.70;;;12.70;87.80;;;;;;5052012;28;20161;-64
2024/01/02 11:54:59;;;;;;;3.95;1.60;;;12.70;87.80;;;;;;5051440;28;20041;-63
2024/01/02 11:57:34;;;;;;;2.50;1.38;;;12.70;87.70;;;;;;5050278;28;20025;-64
2024/01/02 12:00:03;;;;;;;2.67;1.38;;;12.70;87.60;;;;;;5050534;28;20074;-64
2024/01/02 12:03:01;;;;;;;1.65;1.10;;;12.70;87.60;;;;;;5051990;28;20044;-63
2024/01/02 12:05:29;;;;;;;2.15;1.15;;;12.70;87.50;;;;;;5049445;28;20091;-63
2024/01/02 12:07:56;;;;;;;4.20;1.50;;;12.80;87.50;;;;;;5052291;28;20032;-64
2024/01/02 12:10:29;;;;;;;3.08;1.20;;;12.80;87.60;;;;;;5051040;28;20067;-63
2024/01/02 12:13:11;;;;;;;1.58;1.00;;;12.80;87.60;;;;;;5050402;28;20033;-63
2024/01/02 12:15:51;;;;;;;2.33;1.10;;;12.80;87.50;;;;;;5051267;28;20112;-63
2024/01/02 12:18:22;;;;;;;2.03;0.90;;;12.70;87.50;;;;;;5050070;28;20108;-63
2024/01/02 12:21:01;;;;;;;1.85;1.10;;;12.70;87.40;;;;;;5052000;28;20075;-63
2024/01/02 12:23:29;;;;;;;1.83;0.80;;;12.70;87.40;;;;;;5051102;28;20068;-63
2024/01/02 12:26:01;;;;;;;1.23;0.90;;;12.70;87.40;;;;;;5050091;28;20035;-64
2024/01/02 12:28:28;;;;;;;1.55;0.90;;;12.80;87.50;;;;;;5049167;28;20029;-64
2024/01/02 12:31:13;;;;;;;1.50;1.00;;;12.80;87.50;;;;;;5052274;28;20037;-64
2024/01/02 12:33:46;;;;;;;1.48;1.02;;;12.80;87.50;;;;;;5052192;28;20049;-64
2024/01/02 12:36:24;;;;;;;4.00;1.65;;;12.80;87.50;;;;;;5033792;28;20376;-63
2024/01/02 12:38:55;;;;;;;3.25;1.60;;;12.80;87.50;;;;;;5050539;28;20075;-64
2024/01/02 12:41:26;;;;;;;2.45;1.60;;;12.80;87.50;;;;;;5051205;28;20028;-64
2024/01/02 12:43:56;;;;;;;1.90;1.30;;;12.80;87.50;;;;;;5052400;28;20021;-64
2024/01/02 12:46:37;;;;;;;2.50;1.40;;;12.80;87.50;;;;;;5051897;28;20021;-64
2024/01/02 12:49:12;;;;;;;1.98;1.48;;;12.80;87.50;;;;;;5051661;28;20365;-64
2024/01/02 12:51:44;;;;;;;2.15;1.30;;;12.70;87.50;;;;;;5048116;28;20048;-64
2024/01/02 12:54:12;;;;;;;2.60;1.27;;;12.70;87.50;;;;;;5054241;28;20044;-64
2024/01/02 12:56:42;;;;;;;2.08;1.20;;;12.70;87.50;;;;;;5055864;28;20102;-64